createdAt,value
2022-08-03T00:00:57.231Z,16.72
2022-08-03T00:03:39.938Z,16.69
2022-08-03T00:06:22.795Z,16.65
2022-08-03T00:09:06.243Z,16.61
2022-08-03T00:11:49.152Z,16.58
2022-08-03T00:14:34.305Z,16.56
2022-08-03T00:17:16.991Z,16.54
2022-08-03T00:19:59.697Z,16.53
2022-08-03T00:22:42.549Z,16.50
2022-08-03T00:25:25.912Z,16.47
2022-08-03T00:28:08.886Z,16.42
2022-08-03T00:30:51.742Z,16.37
2022-08-03T00:33:58.982Z,16.34
2022-08-03T00:36:37.649Z,16.32
2022-08-03T00:39:20.304Z,16.29
2022-08-03T00:42:03.991Z,16.26
2022-08-03T00:44:46.933Z,16.24
2022-08-03T00:47:29.657Z,16.23
2022-08-03T00:50:12.644Z,16.21
2022-08-03T00:52:58.055Z,16.20
2022-08-03T00:55:41.781Z,16.19
2022-08-03T00:58:27.503Z,16.17
2022-08-03T01:01:11.711Z,16.12
2022-08-03T01:03:54.579Z,16.07
2022-08-03T01:06:45.753Z,16.03
2022-08-03T01:09:38.022Z,15.99
2022-08-03T01:12:28.588Z,16.00
2022-08-03T01:15:19.375Z,15.99
2022-08-03T01:18:09.486Z,15.98
2022-08-03T01:20:56.269Z,15.95
2022-08-03T01:23:56.416Z,15.89
2022-08-03T01:27:00.583Z,15.83
2022-08-03T01:30:01.696Z,15.80
2022-08-03T01:32:53.427Z,15.77
2022-08-03T01:35:48.372Z,15.74
2022-08-03T01:38:35.705Z,15.67
2022-08-03T01:41:29.593Z,15.62
2022-08-03T01:44:29.571Z,15.56
2022-08-03T01:47:15.165Z,15.50
2022-08-03T01:50:02.086Z,15.48
2022-08-03T01:52:47.740Z,15.46
2022-08-03T01:55:32.653Z,15.43
2022-08-03T01:58:16.917Z,15.40
2022-08-03T02:01:02.364Z,15.38
2022-08-03T02:04:00.263Z,15.38
2022-08-03T02:07:02.540Z,15.40
2022-08-03T02:09:51.136Z,15.40
2022-08-03T02:12:36.864Z,15.39
2022-08-03T02:15:20.054Z,15.38
2022-08-03T02:18:05.774Z,15.39
2022-08-03T02:20:49.860Z,15.40
2022-08-03T02:23:32.720Z,15.39
2022-08-03T02:26:20.074Z,15.35
2022-08-03T02:29:11.064Z,15.30
2022-08-03T02:31:57.678Z,15.24
2022-08-03T02:34:44.880Z,15.23
2022-08-03T02:37:32.095Z,15.23
2022-08-03T02:40:17.720Z,15.22
2022-08-03T02:43:05.051Z,15.23
2022-08-03T02:45:51.139Z,15.22
2022-08-03T02:48:34.309Z,15.24
2022-08-03T02:51:20.927Z,15.25
2022-08-03T02:54:06.022Z,15.30
2022-08-03T02:56:50.043Z,15.32
2022-08-03T02:59:33.377Z,15.34
2022-08-03T03:02:18.127Z,15.34
2022-08-03T03:05:52.162Z,15.38
2022-08-03T03:08:06.097Z,15.43
2022-08-03T03:11:02.440Z,15.45
2022-08-03T03:13:46.260Z,15.49
2022-08-03T03:16:31.126Z,15.52
2022-08-03T03:19:15.534Z,15.54
2022-08-03T03:22:00.768Z,15.58
2022-08-03T03:24:45.349Z,15.62
2022-08-03T03:27:28.841Z,15.64
2022-08-03T03:30:14.443Z,15.67
2022-08-03T03:32:58.488Z,15.70
2022-08-03T03:35:42.858Z,15.71
2022-08-03T03:38:25.822Z,15.74
2022-08-03T03:41:09.572Z,15.77
2022-08-03T03:43:52.536Z,15.79
2022-08-03T03:46:35.365Z,15.79
2022-08-03T03:49:18.610Z,15.80
2022-08-03T03:52:01.429Z,15.80
2022-08-03T03:54:45.893Z,15.79
2022-08-03T03:57:29.070Z,15.80
2022-08-03T04:00:15.572Z,15.81
2022-08-03T04:02:58.447Z,15.81
2022-08-03T04:05:59.804Z,15.82
2022-08-03T04:09:00.737Z,15.81
2022-08-03T04:11:51.987Z,15.82
2022-08-03T04:14:37.280Z,15.83
2022-08-03T04:17:21.781Z,15.85
2022-08-03T04:20:06.985Z,15.86
2022-08-03T04:22:51.170Z,15.87
2022-08-03T04:25:37.731Z,15.89
2022-08-03T04:28:31.088Z,15.90
2022-08-03T04:31:15.798Z,15.90
2022-08-03T04:33:59.201Z,15.91
2022-08-03T04:36:49.085Z,15.93
2022-08-03T04:39:32.709Z,15.97
2022-08-03T04:42:16.452Z,16.01
2022-08-03T04:45:01.628Z,16.02
2022-08-03T04:47:44.732Z,16.01
2022-08-03T04:50:28.289Z,16.02
2022-08-03T04:53:19.767Z,16.02
2022-08-03T04:56:06.023Z,16.04
2022-08-03T04:58:48.842Z,16.08
2022-08-03T05:01:34.043Z,16.14
2022-08-03T05:04:16.871Z,16.19
2022-08-03T05:06:59.708Z,16.24
2022-08-03T05:10:01.718Z,16.35
2022-08-03T05:12:48.444Z,16.45
2022-08-03T05:15:31.394Z,16.50
2022-08-03T05:18:14.562Z,16.63
2022-08-03T05:20:57.455Z,16.92
2022-08-03T05:23:40.888Z,17.30
2022-08-03T05:26:23.667Z,17.62
2022-08-03T05:29:06.386Z,17.86
2022-08-03T05:31:49.235Z,18.13
2022-08-03T05:34:32.080Z,18.42
2022-08-03T05:37:14.756Z,18.63
2022-08-03T05:39:57.465Z,18.73
2022-08-03T05:42:40.161Z,18.84
2022-08-03T05:45:28.141Z,18.94
2022-08-03T05:48:11.462Z,19.10
2022-08-03T05:50:54.373Z,19.13
2022-08-03T05:53:37.831Z,19.17
2022-08-03T05:56:24.020Z,19.30
2022-08-03T05:59:35.765Z,19.36
2022-08-03T06:02:16.494Z,19.48
2022-08-03T06:04:59.518Z,19.73
2022-08-03T06:07:42.350Z,20.06
2022-08-03T06:10:34.410Z,20.42
2022-08-03T06:13:21.337Z,20.74
2022-08-03T06:16:04.925Z,21.10
2022-08-03T06:18:47.634Z,21.37
2022-08-03T06:21:30.337Z,21.69
2022-08-03T06:24:13.913Z,22.09
2022-08-03T06:26:58.394Z,22.45
2022-08-03T06:29:41.099Z,22.74
2022-08-03T06:32:23.912Z,22.97
2022-08-03T06:35:08.321Z,23.25
2022-08-03T06:37:51.604Z,23.50
2022-08-03T06:40:39.351Z,23.66
2022-08-03T06:43:22.174Z,23.77
2022-08-03T06:46:05.653Z,23.96
2022-08-03T06:48:48.669Z,24.20
2022-08-03T06:52:05.249Z,24.35
2022-08-03T06:54:35.876Z,24.49
2022-08-03T06:57:18.843Z,24.71
2022-08-03T07:00:08.852Z,24.99
2022-08-03T07:02:58.454Z,25.20
2022-08-03T07:05:42.985Z,25.39
2022-08-03T07:08:33.639Z,25.57
2022-08-03T07:11:17.610Z,25.69
2022-08-03T07:14:00.703Z,25.76
2022-08-03T07:16:45.305Z,25.96
2022-08-03T07:19:28.184Z,26.26
2022-08-03T07:22:11.231Z,26.52
2022-08-03T07:24:54.188Z,26.80
2022-08-03T07:27:37.760Z,27.01
2022-08-03T07:30:20.532Z,27.11
2022-08-03T07:33:03.323Z,27.30
2022-08-03T07:35:49.045Z,27.43
2022-08-03T07:38:31.984Z,27.54
2022-08-03T07:41:14.692Z,27.68
2022-08-03T07:43:57.466Z,27.82
2022-08-03T07:46:47.256Z,27.92
2022-08-03T07:49:33.018Z,28.10
2022-08-03T07:52:36.787Z,28.34
2022-08-03T07:55:21.534Z,28.48
2022-08-03T07:58:09.350Z,28.62
2022-08-03T08:00:52.847Z,28.72
2022-08-03T08:03:49.877Z,28.74
2022-08-03T08:06:35.405Z,28.64
2022-08-03T08:09:18.354Z,28.68
2022-08-03T08:12:01.043Z,28.75
2022-08-03T08:14:46.023Z,28.81
2022-08-03T08:17:28.834Z,29.10
2022-08-03T08:20:15.476Z,29.40
2022-08-03T08:23:03.573Z,29.61
2022-08-03T08:26:06.208Z,29.67
2022-08-03T08:28:49.971Z,29.72
2022-08-03T08:31:33.691Z,29.80
2022-08-03T08:34:16.455Z,29.95
2022-08-03T08:36:59.129Z,30.02
2022-08-03T08:39:41.883Z,30.17
2022-08-03T08:42:24.812Z,30.19
2022-08-03T08:45:11.194Z,30.36
2022-08-03T08:48:00.409Z,30.57
2022-08-03T08:50:46.048Z,30.50
2022-08-03T08:53:32.147Z,30.44
2022-08-03T08:56:16.718Z,30.55
2022-08-03T08:59:02.212Z,30.80
2022-08-03T09:01:46.531Z,31.07
2022-08-03T09:04:30.585Z,31.16
2022-08-03T09:07:20.639Z,31.16
2022-08-03T09:10:12.049Z,31.31
2022-08-03T09:12:56.121Z,31.23
2022-08-03T09:15:38.939Z,31.24
2022-08-03T09:18:30.518Z,31.26
2022-08-03T09:21:31.234Z,31.39
2022-08-03T09:24:40.593Z,31.59
2022-08-03T09:27:23.980Z,31.81
2022-08-03T09:30:33.125Z,31.94
2022-08-03T09:33:16.913Z,31.92
2022-08-03T09:35:59.739Z,31.94
2022-08-03T09:38:43.313Z,32.15
2022-08-03T09:41:26.066Z,32.36
2022-08-03T09:44:09.015Z,32.38
2022-08-03T09:47:09.344Z,32.38
2022-08-03T09:50:01.273Z,32.45
2022-08-03T09:52:49.912Z,32.72
2022-08-03T09:56:35.041Z,33.05
2022-08-03T09:58:46.383Z,33.10
2022-08-03T10:01:34.531Z,33.05
2022-08-03T10:04:19.755Z,32.83
2022-08-03T10:07:03.261Z,32.72
2022-08-03T10:09:54.808Z,32.46
2022-08-03T10:12:38.618Z,32.38
2022-08-03T10:16:23.118Z,32.57
2022-08-03T10:18:26.782Z,32.93
2022-08-03T10:21:16.466Z,33.21
2022-08-03T10:24:01.894Z,33.33
2022-08-03T10:26:49.688Z,33.38
2022-08-03T10:29:39.742Z,33.59
2022-08-03T10:32:28.587Z,33.63
2022-08-03T10:35:20.817Z,33.92
2022-08-03T10:38:09.395Z,34.08
2022-08-03T10:40:58.962Z,34.83
2022-08-03T10:43:49.953Z,35.81
2022-08-03T10:46:35.386Z,36.54
2022-08-03T10:49:32.829Z,36.93
2022-08-03T10:52:31.834Z,36.88
2022-08-03T10:55:54.406Z,36.95
2022-08-03T10:58:53.255Z,37.22
2022-08-03T11:01:58.717Z,37.52
2022-08-03T11:04:44.207Z,37.73
2022-08-03T11:07:26.448Z,37.89
2022-08-03T11:10:32.153Z,37.84
2022-08-03T11:13:17.750Z,37.89
2022-08-03T11:16:06.554Z,38.13
2022-08-03T11:18:58.676Z,38.53
2022-08-03T11:21:57.617Z,39.04
2022-08-03T11:25:02.155Z,39.58
2022-08-03T11:27:45.265Z,39.98
2022-08-03T11:30:29.217Z,39.99
2022-08-03T11:33:30.168Z,39.96
2022-08-03T11:36:15.840Z,39.91
2022-08-03T11:39:17.085Z,39.56
2022-08-03T11:41:59.979Z,39.38
2022-08-03T11:44:47.521Z,39.37
2022-08-03T11:47:30.621Z,39.50
2022-08-03T11:50:13.477Z,39.41
2022-08-03T11:52:56.309Z,38.66
2022-08-03T11:55:41.456Z,38.19
2022-08-03T11:59:01.689Z,38.05
2022-08-03T12:01:27.483Z,38.10
2022-08-03T12:04:11.072Z,38.03
2022-08-03T12:07:01.009Z,37.46
2022-08-03T12:09:43.739Z,37.24
2022-08-03T12:12:26.480Z,37.57
2022-08-03T12:15:11.278Z,37.83
2022-08-03T12:17:57.692Z,38.10
2022-08-03T12:20:41.290Z,38.38
2022-08-03T12:23:26.920Z,38.66
2022-08-03T12:26:10.538Z,38.69
2022-08-03T12:28:53.383Z,38.25
2022-08-03T12:31:36.746Z,37.86
2022-08-03T12:34:19.479Z,37.49
2022-08-03T12:37:21.754Z,37.45
2022-08-03T12:40:11.147Z,37.57
2022-08-03T12:42:55.649Z,37.54
2022-08-03T12:45:38.566Z,37.47
2022-08-03T12:48:21.296Z,37.43
2022-08-03T12:51:11.149Z,37.38
2022-08-03T12:53:55.063Z,37.17
2022-08-03T12:56:57.339Z,36.75
2022-08-03T12:59:42.213Z,36.31
2022-08-03T13:02:32.838Z,36.24
2022-08-03T13:05:15.862Z,36.39
2022-08-03T13:07:59.283Z,36.51
2022-08-03T13:10:42.575Z,36.31
2022-08-03T13:13:39.627Z,36.03
2022-08-03T13:16:23.910Z,35.99
2022-08-03T13:19:10.045Z,35.89
2022-08-03T13:22:03.721Z,35.61
2022-08-03T13:24:49.316Z,35.21
2022-08-03T13:28:03.619Z,34.91
2022-08-03T13:30:37.430Z,34.58
2022-08-03T13:33:20.160Z,34.29
2022-08-03T13:36:03.199Z,34.05
2022-08-03T13:38:46.192Z,34.00
2022-08-03T13:41:31.361Z,33.98
2022-08-03T13:44:30.071Z,34.00
2022-08-03T13:47:13.019Z,34.07
2022-08-03T13:50:01.104Z,34.07
2022-08-03T13:52:45.711Z,33.92
2022-08-03T13:55:28.925Z,33.74
2022-08-03T13:58:12.271Z,33.58
2022-08-03T14:00:55.148Z,33.51
2022-08-03T14:03:37.926Z,33.25
2022-08-03T14:06:21.137Z,33.07
2022-08-03T14:09:04.373Z,33.10
2022-08-03T14:12:08.438Z,33.08
2022-08-03T14:14:52.098Z,33.00
2022-08-03T14:17:42.103Z,32.96
2022-08-03T14:20:36.214Z,32.95
2022-08-03T14:23:28.223Z,32.86
2022-08-03T14:26:11.432Z,32.70
2022-08-03T14:28:55.183Z,32.51
2022-08-03T14:32:10.995Z,32.43
2022-08-03T14:34:41.122Z,32.42
2022-08-03T14:37:23.947Z,32.40
2022-08-03T14:40:08.903Z,32.34
2022-08-03T14:42:50.975Z,32.26
2022-08-03T14:45:34.071Z,32.15
2022-08-03T14:50:34.712Z,32.04
2022-08-03T14:51:21.906Z,31.96
2022-08-03T14:54:05.468Z,31.91
2022-08-03T14:56:48.152Z,31.84
2022-08-03T14:59:55.453Z,31.80
2022-08-03T15:02:33.653Z,31.81
2022-08-03T15:05:16.536Z,31.76
2022-08-03T15:07:59.330Z,31.64
2022-08-03T15:10:45.401Z,31.50
2022-08-03T15:13:28.565Z,31.39
2022-08-03T15:16:13.680Z,31.26
2022-08-03T15:18:55.600Z,31.15
2022-08-03T15:21:46.671Z,31.06
2022-08-03T15:24:30.322Z,31.01
2022-08-03T15:27:13.237Z,30.97
2022-08-03T15:30:07.648Z,30.92
2022-08-03T15:32:52.608Z,30.91
2022-08-03T15:35:35.761Z,30.91
2022-08-03T15:38:18.870Z,30.91
2022-08-03T15:41:01.998Z,30.88
2022-08-03T15:43:47.802Z,30.85
2022-08-03T15:46:30.837Z,30.76
2022-08-03T15:49:13.873Z,30.66
2022-08-03T15:51:56.670Z,30.56
2022-08-03T15:54:39.476Z,30.50
2022-08-03T15:57:22.659Z,30.44
2022-08-03T16:00:08.896Z,30.42
2022-08-03T16:02:56.776Z,30.37
2022-08-03T16:05:39.831Z,30.33
2022-08-03T16:08:22.875Z,30.26
2022-08-03T16:11:08.478Z,30.21
2022-08-03T16:14:13.402Z,30.18
2022-08-03T16:16:54.075Z,30.12
2022-08-03T16:19:36.911Z,30.07
2022-08-03T16:22:22.173Z,30.03
2022-08-03T16:25:15.952Z,29.97
2022-08-03T16:28:07.788Z,29.92
2022-08-03T16:30:55.772Z,29.87
2022-08-03T16:33:39.550Z,29.81
2022-08-03T16:36:22.547Z,29.77
2022-08-03T16:39:05.626Z,29.74
2022-08-03T16:41:54.348Z,29.69
2022-08-03T16:44:44.025Z,29.63
2022-08-03T16:47:27.045Z,29.61
2022-08-03T16:50:15.836Z,29.58
2022-08-03T16:53:05.177Z,29.55
2022-08-03T16:55:54.184Z,29.51
2022-08-03T16:58:42.135Z,29.47
2022-08-03T17:01:35.755Z,29.43
2022-08-03T17:04:20.529Z,29.37
2022-08-03T17:07:04.532Z,29.31
2022-08-03T17:09:48.495Z,29.25
2022-08-03T17:12:32.238Z,29.21
2022-08-03T17:15:15.311Z,29.16
2022-08-03T17:18:07.498Z,29.11
2022-08-03T17:20:51.974Z,29.06
2022-08-03T17:23:44.209Z,29.01
2022-08-03T17:26:30.490Z,28.94
2022-08-03T17:29:19.677Z,28.89
2022-08-03T17:32:10.099Z,28.83
2022-08-03T17:34:55.182Z,28.77
2022-08-03T17:37:58.363Z,28.71
2022-08-03T17:40:48.110Z,28.63
2022-08-03T17:44:13.784Z,28.57
2022-08-03T17:46:38.112Z,28.50
2022-08-03T17:49:25.576Z,28.42
2022-08-03T17:52:17.644Z,28.35
2022-08-03T17:55:56.320Z,28.26
2022-08-03T17:58:20.899Z,28.18
2022-08-03T18:02:06.217Z,28.10
2022-08-03T18:04:30.339Z,27.98
2022-08-03T18:07:18.268Z,27.89
2022-08-03T18:10:06.331Z,27.80
2022-08-03T18:13:10.399Z,27.69
2022-08-03T18:16:00.483Z,27.56
2022-08-03T18:18:48.663Z,27.44
2022-08-03T18:22:02.184Z,27.32
2022-08-03T18:24:37.900Z,27.20
2022-08-03T18:27:22.680Z,27.09
2022-08-03T18:30:08.377Z,26.98
2022-08-03T18:33:00.643Z,26.86
2022-08-03T18:35:59.910Z,26.72
2022-08-03T18:38:43.727Z,26.64
2022-08-03T18:41:32.113Z,26.53
2022-08-03T18:44:37.579Z,26.42
2022-08-03T18:47:52.483Z,26.29
2022-08-03T18:50:40.558Z,26.16
2022-08-03T18:54:01.890Z,26.06
2022-08-03T18:56:44.085Z,25.92
2022-08-03T18:59:38.916Z,25.83
2022-08-03T19:02:29.193Z,25.73
2022-08-03T19:05:16.279Z,25.64
2022-08-03T19:08:04.274Z,25.58
2022-08-03T19:10:57.866Z,25.51
2022-08-03T19:13:50.303Z,25.43
2022-08-03T19:16:39.321Z,25.33
2022-08-03T19:19:44.878Z,25.24
2022-08-03T19:22:28.797Z,25.16
2022-08-03T19:25:13.665Z,25.08
2022-08-03T19:28:00.352Z,24.99
2022-08-03T19:30:53.709Z,24.91
2022-08-03T19:33:55.675Z,24.83
2022-08-03T19:36:43.783Z,24.75
2022-08-03T19:39:27.075Z,24.67
2022-08-03T19:42:20.052Z,24.61
2022-08-03T19:45:13.953Z,24.53
2022-08-03T19:48:09.723Z,24.47
2022-08-03T19:50:56.965Z,24.38
2022-08-03T19:53:46.473Z,24.31
2022-08-03T19:56:31.147Z,24.24
2022-08-03T19:59:15.333Z,24.17
2022-08-03T20:01:58.266Z,24.09
2022-08-03T20:04:41.502Z,24.02
2022-08-03T20:07:25.168Z,23.94
2022-08-03T20:10:10.054Z,23.88
2022-08-03T20:12:53.876Z,23.82
2022-08-03T20:15:41.382Z,23.76
2022-08-03T20:18:24.696Z,23.69
2022-08-03T20:21:15.138Z,23.62
2022-08-03T20:24:24.298Z,23.57
2022-08-03T20:27:10.460Z,23.50
2022-08-03T20:30:07.175Z,23.43
2022-08-03T20:32:51.793Z,23.36
2022-08-03T20:35:35.598Z,23.29
2022-08-03T20:38:19.642Z,23.23
2022-08-03T20:41:03.811Z,23.17
2022-08-03T20:43:48.322Z,23.12
2022-08-03T20:46:46.433Z,23.05
2022-08-03T20:49:45.651Z,22.99
2022-08-03T20:52:31.262Z,22.93
2022-08-03T20:55:16.093Z,22.89
2022-08-03T20:58:00.035Z,22.84
2022-08-03T21:00:43.479Z,22.76
2022-08-03T21:03:41.053Z,22.68
2022-08-03T21:06:36.845Z,22.59
2022-08-03T21:09:23.949Z,22.49
2022-08-03T21:12:22.244Z,22.40
2022-08-03T21:16:02.237Z,22.26
2022-08-03T21:18:17.099Z,22.14
2022-08-03T21:21:00.818Z,22.01
2022-08-03T21:23:48.300Z,21.90
2022-08-03T21:26:37.548Z,21.81
2022-08-03T21:29:24.004Z,21.73
2022-08-03T21:32:07.995Z,21.66
2022-08-03T21:34:51.923Z,21.59
2022-08-03T21:37:35.014Z,21.53
2022-08-03T21:40:17.887Z,21.47
2022-08-03T21:43:00.882Z,21.40
2022-08-03T21:45:49.753Z,21.31
2022-08-03T21:48:36.590Z,21.25
2022-08-03T21:51:23.464Z,21.20
2022-08-03T21:54:07.241Z,21.14
2022-08-03T21:56:54.537Z,21.09
2022-08-03T21:59:42.741Z,21.05
2022-08-03T22:02:31.356Z,21.00
2022-08-03T22:05:17.025Z,20.95
2022-08-03T22:08:00.567Z,20.92
2022-08-03T22:10:46.006Z,20.90
2022-08-03T22:13:43.555Z,20.89
2022-08-03T22:16:28.260Z,20.87
2022-08-03T22:19:13.437Z,20.84
2022-08-03T22:22:03.867Z,20.82
2022-08-03T22:24:48.272Z,20.80
2022-08-03T22:27:32.594Z,20.77
2022-08-03T22:30:18.131Z,20.75
2022-08-03T22:33:05.052Z,20.71
2022-08-03T22:35:58.587Z,20.66
2022-08-03T22:38:42.018Z,20.62
2022-08-03T22:41:28.805Z,20.56
2022-08-03T22:44:15.448Z,20.51
2022-08-03T22:46:59.193Z,20.46
2022-08-03T22:49:43.298Z,20.39
2022-08-03T22:52:28.145Z,20.32
2022-08-03T22:55:18.873Z,20.27
2022-08-03T22:58:07.888Z,20.22
2022-08-03T23:00:54.236Z,20.19
2022-08-03T23:04:01.221Z,20.15
2022-08-03T23:06:50.162Z,20.10
2022-08-03T23:09:33.714Z,20.05
2022-08-03T23:12:19.804Z,20.01
2022-08-03T23:15:06.146Z,19.98
2022-08-03T23:17:57.369Z,19.94
2022-08-03T23:20:42.226Z,19.90
2022-08-03T23:23:30.596Z,19.85
2022-08-03T23:26:29.580Z,19.80
2022-08-03T23:29:15.940Z,19.74
2022-08-03T23:32:00.773Z,19.67
2022-08-03T23:35:02.975Z,19.64
2022-08-03T23:38:04.619Z,19.61
2022-08-03T23:40:51.225Z,19.57
2022-08-03T23:43:52.077Z,19.53
2022-08-03T23:46:38.641Z,19.48
2022-08-03T23:49:24.227Z,19.43
2022-08-03T23:52:12.696Z,19.39
2022-08-03T23:55:16.201Z,19.35
2022-08-03T23:58:05.057Z,19.34
